sensor_id;sensor_type;location;lat;lon;timestamp;P1;durP1;ratioP1;P2;durP2;ratioP2
6735;SDS011;3405;50.576;12.364;2023-07-24T00:01:50;3.70;;;2.88;;
6735;SDS011;3405;50.576;12.364;2023-07-24T00:04:16;5.85;;;2.97;;
6735;SDS011;3405;50.576;12.364;2023-07-24T00:06:42;4.07;;;3.00;;
6735;SDS011;3405;50.576;12.364;2023-07-24T00:09:08;3.35;;;2.60;;
6735;SDS011;3405;50.576;12.364;2023-07-24T00:11:34;5.50;;;2.63;;
6735;SDS011;3405;50.576;12.364;2023-07-24T00:14:00;3.58;;;2.90;;
6735;SDS011;3405;50.576;12.364;2023-07-24T00:16:26;3.95;;;2.67;;
6735;SDS011;3405;50.576;12.364;2023-07-24T00:18:52;3.65;;;2.90;;
6735;SDS011;3405;50.576;12.364;2023-07-24T00:21:18;4.45;;;2.63;;
6735;SDS011;3405;50.576;12.364;2023-07-24T00:23:44;3.75;;;2.60;;
6735;SDS011;3405;50.576;12.364;2023-07-24T00:26:10;5.57;;;2.97;;
6735;SDS011;3405;50.576;12.364;2023-07-24T00:28:35;4.05;;;2.30;;
6735;SDS011;3405;50.576;12.364;2023-07-24T00:31:01;3.60;;;2.95;;
6735;SDS011;3405;50.576;12.364;2023-07-24T00:33:27;4.20;;;2.88;;
6735;SDS011;3405;50.576;12.364;2023-07-24T00:35:56;4.30;;;2.70;;
6735;SDS011;3405;50.576;12.364;2023-07-24T00:38:23;2.95;;;2.50;;
6735;SDS011;3405;50.576;12.364;2023-07-24T00:40:49;5.75;;;2.67;;
6735;SDS011;3405;50.576;12.364;2023-07-24T00:43:15;3.30;;;2.60;;
6735;SDS011;3405;50.576;12.364;2023-07-24T00:45:41;5.88;;;2.80;;
6735;SDS011;3405;50.576;12.364;2023-07-24T00:48:07;4.07;;;2.60;;
6735;SDS011;3405;50.576;12.364;2023-07-24T00:50:33;5.18;;;2.85;;
6735;SDS011;3405;50.576;12.364;2023-07-24T00:53:01;4.03;;;2.72;;
6735;SDS011;3405;50.576;12.364;2023-07-24T00:55:27;5.40;;;2.90;;
6735;SDS011;3405;50.576;12.364;2023-07-24T00:57:53;4.05;;;2.75;;
6735;SDS011;3405;50.576;12.364;2023-07-24T01:00:19;5.25;;;2.53;;
6735;SDS011;3405;50.576;12.364;2023-07-24T01:02:45;4.28;;;2.80;;
6735;SDS011;3405;50.576;12.364;2023-07-24T01:05:13;4.15;;;3.05;;
6735;SDS011;3405;50.576;12.364;2023-07-24T01:07:40;4.03;;;3.03;;
6735;SDS011;3405;50.576;12.364;2023-07-24T01:10:06;4.32;;;2.53;;
6735;SDS011;3405;50.576;12.364;2023-07-24T01:12:36;3.83;;;2.78;;
6735;SDS011;3405;50.576;12.364;2023-07-24T01:17:29;3.65;;;2.78;;
6735;SDS011;3405;50.576;12.364;2023-07-24T01:19:57;4.50;;;2.85;;
6735;SDS011;3405;50.576;12.364;2023-07-24T01:22:32;4.10;;;2.67;;
6735;SDS011;3405;50.576;12.364;2023-07-24T01:25:09;4.40;;;2.63;;
6735;SDS011;3405;50.576;12.364;2023-07-24T01:27:42;4.28;;;3.25;;
6735;SDS011;3405;50.576;12.364;2023-07-24T01:30:08;4.35;;;3.50;;
6735;SDS011;3405;50.576;12.364;2023-07-24T01:32:34;4.95;;;3.00;;
6735;SDS011;3405;50.576;12.364;2023-07-24T01:35:00;4.70;;;3.30;;
6735;SDS011;3405;50.576;12.364;2023-07-24T01:37:26;4.65;;;2.92;;
6735;SDS011;3405;50.576;12.364;2023-07-24T01:39:53;6.93;;;3.63;;
6735;SDS011;3405;50.576;12.364;2023-07-24T01:42:19;4.90;;;3.15;;
6735;SDS011;3405;50.576;12.364;2023-07-24T01:44:50;4.80;;;3.05;;
6735;SDS011;3405;50.576;12.364;2023-07-24T01:47:16;4.38;;;3.50;;
6735;SDS011;3405;50.576;12.364;2023-07-24T01:49:42;4.38;;;3.05;;
6735;SDS011;3405;50.576;12.364;2023-07-24T01:52:08;12.20;;;3.08;;
6735;SDS011;3405;50.576;12.364;2023-07-24T01:54:34;6.47;;;3.20;;
6735;SDS011;3405;50.576;12.364;2023-07-24T01:57:00;3.55;;;2.83;;
6735;SDS011;3405;50.576;12.364;2023-07-24T01:59:26;3.85;;;2.80;;
6735;SDS011;3405;50.576;12.364;2023-07-24T02:01:52;4.25;;;2.95;;
6735;SDS011;3405;50.576;12.364;2023-07-24T02:04:18;4.70;;;3.17;;
6735;SDS011;3405;50.576;12.364;2023-07-24T02:06:47;4.40;;;3.40;;
6735;SDS011;3405;50.576;12.364;2023-07-24T02:09:13;5.07;;;3.53;;
6735;SDS011;3405;50.576;12.364;2023-07-24T02:11:38;3.88;;;2.70;;
6735;SDS011;3405;50.576;12.364;2023-07-24T02:14:05;5.35;;;3.20;;
6735;SDS011;3405;50.576;12.364;2023-07-24T02:16:30;4.20;;;3.10;;
6735;SDS011;3405;50.576;12.364;2023-07-24T02:18:56;4.97;;;3.00;;
6735;SDS011;3405;50.576;12.364;2023-07-24T02:21:22;4.72;;;3.13;;
6735;SDS011;3405;50.576;12.364;2023-07-24T02:23:48;4.40;;;3.00;;
6735;SDS011;3405;50.576;12.364;2023-07-24T02:26:14;5.63;;;3.08;;
6735;SDS011;3405;50.576;12.364;2023-07-24T02:28:40;6.65;;;3.38;;
6735;SDS011;3405;50.576;12.364;2023-07-24T02:31:06;4.90;;;3.25;;
6735;SDS011;3405;50.576;12.364;2023-07-24T02:33:32;5.13;;;3.50;;
6735;SDS011;3405;50.576;12.364;2023-07-24T02:36:00;4.57;;;3.22;;
6735;SDS011;3405;50.576;12.364;2023-07-24T02:38:26;5.43;;;3.10;;
6735;SDS011;3405;50.576;12.364;2023-07-24T02:40:52;4.88;;;3.40;;
6735;SDS011;3405;50.576;12.364;2023-07-24T02:43:18;4.70;;;3.00;;
6735;SDS011;3405;50.576;12.364;2023-07-24T02:45:44;4.05;;;3.22;;
6735;SDS011;3405;50.576;12.364;2023-07-24T02:48:10;6.85;;;3.65;;
6735;SDS011;3405;50.576;12.364;2023-07-24T02:50:36;5.63;;;3.55;;
6735;SDS011;3405;50.576;12.364;2023-07-24T02:53:02;5.53;;;3.47;;
6735;SDS011;3405;50.576;12.364;2023-07-24T02:55:29;4.97;;;3.35;;
6735;SDS011;3405;50.576;12.364;2023-07-24T02:57:55;4.90;;;3.40;;
6735;SDS011;3405;50.576;12.364;2023-07-24T03:00:21;4.47;;;3.15;;
6735;SDS011;3405;50.576;12.364;2023-07-24T03:02:47;4.65;;;3.28;;
6735;SDS011;3405;50.576;12.364;2023-07-24T03:05:13;4.72;;;3.47;;
6735;SDS011;3405;50.576;12.364;2023-07-24T03:07:38;4.80;;;3.20;;
6735;SDS011;3405;50.576;12.364;2023-07-24T03:10:04;4.75;;;3.38;;
6735;SDS011;3405;50.576;12.364;2023-07-24T03:12:30;4.68;;;3.20;;
6735;SDS011;3405;50.576;12.364;2023-07-24T03:14:56;5.20;;;3.50;;
6735;SDS011;3405;50.576;12.364;2023-07-24T03:17:22;4.35;;;3.33;;
6735;SDS011;3405;50.576;12.364;2023-07-24T03:19:48;5.47;;;3.28;;
6735;SDS011;3405;50.576;12.364;2023-07-24T03:22:14;6.95;;;3.45;;
6735;SDS011;3405;50.576;12.364;2023-07-24T03:24:40;5.88;;;3.33;;
6735;SDS011;3405;50.576;12.364;2023-07-24T03:27:06;6.82;;;3.90;;
6735;SDS011;3405;50.576;12.364;2023-07-24T03:29:32;5.47;;;3.80;;
6735;SDS011;3405;50.576;12.364;2023-07-24T03:31:58;4.53;;;3.40;;
6735;SDS011;3405;50.576;12.364;2023-07-24T03:34:24;6.00;;;3.40;;
6735;SDS011;3405;50.576;12.364;2023-07-24T03:36:50;6.25;;;3.83;;
6735;SDS011;3405;50.576;12.364;2023-07-24T03:39:16;4.70;;;3.70;;
6735;SDS011;3405;50.576;12.364;2023-07-24T03:41:42;5.25;;;3.65;;
6735;SDS011;3405;50.576;12.364;2023-07-24T03:44:08;6.47;;;3.80;;
6735;SDS011;3405;50.576;12.364;2023-07-24T03:46:34;5.97;;;3.78;;
6735;SDS011;3405;50.576;12.364;2023-07-24T03:49:00;10.65;;;3.58;;
6735;SDS011;3405;50.576;12.364;2023-07-24T03:51:26;7.35;;;3.83;;
6735;SDS011;3405;50.576;12.364;2023-07-24T03:53:52;6.38;;;3.53;;
6735;SDS011;3405;50.576;12.364;2023-07-24T03:56:18;5.25;;;3.67;;
6735;SDS011;3405;50.576;12.364;2023-07-24T03:58:44;5.80;;;3.75;;
6735;SDS011;3405;50.576;12.364;2023-07-24T04:01:11;5.72;;;3.65;;
6735;SDS011;3405;50.576;12.364;2023-07-24T04:03:37;7.30;;;4.07;;
6735;SDS011;3405;50.576;12.364;2023-07-24T04:06:03;5.35;;;3.45;;
6735;SDS011;3405;50.576;12.364;2023-07-24T04:08:29;6.65;;;3.70;;
6735;SDS011;3405;50.576;12.364;2023-07-24T04:10:55;5.82;;;3.65;;
6735;SDS011;3405;50.576;12.364;2023-07-24T04:13:21;6.18;;;3.80;;
6735;SDS011;3405;50.576;12.364;2023-07-24T04:15:47;7.10;;;3.97;;
6735;SDS011;3405;50.576;12.364;2023-07-24T04:18:13;7.03;;;3.53;;
6735;SDS011;3405;50.576;12.364;2023-07-24T04:20:39;5.85;;;3.92;;
6735;SDS011;3405;50.576;12.364;2023-07-24T04:23:05;5.25;;;3.50;;
6735;SDS011;3405;50.576;12.364;2023-07-24T04:25:31;4.45;;;3.55;;
6735;SDS011;3405;50.576;12.364;2023-07-24T04:27:57;5.68;;;3.95;;
6735;SDS011;3405;50.576;12.364;2023-07-24T04:30:23;4.32;;;3.50;;
6735;SDS011;3405;50.576;12.364;2023-07-24T04:32:49;7.22;;;4.25;;
6735;SDS011;3405;50.576;12.364;2023-07-24T04:35:15;6.80;;;3.67;;
6735;SDS011;3405;50.576;12.364;2023-07-24T04:37:41;6.28;;;4.10;;
6735;SDS011;3405;50.576;12.364;2023-07-24T04:40:07;8.25;;;4.03;;
6735;SDS011;3405;50.576;12.364;2023-07-24T04:42:33;6.38;;;4.10;;
6735;SDS011;3405;50.576;12.364;2023-07-24T04:44:59;6.72;;;4.38;;
6735;SDS011;3405;50.576;12.364;2023-07-24T04:47:25;5.43;;;3.92;;
6735;SDS011;3405;50.576;12.364;2023-07-24T04:49:51;7.38;;;3.92;;
6735;SDS011;3405;50.576;12.364;2023-07-24T04:52:17;5.65;;;3.42;;
6735;SDS011;3405;50.576;12.364;2023-07-24T04:54:43;7.28;;;3.72;;
6735;SDS011;3405;50.576;12.364;2023-07-24T04:57:09;6.30;;;3.65;;
6735;SDS011;3405;50.576;12.364;2023-07-24T04:59:35;5.68;;;3.90;;
6735;SDS011;3405;50.576;12.364;2023-07-24T05:02:01;8.55;;;3.78;;
6735;SDS011;3405;50.576;12.364;2023-07-24T05:04:26;5.20;;;3.72;;
6735;SDS011;3405;50.576;12.364;2023-07-24T05:06:52;6.03;;;3.80;;
6735;SDS011;3405;50.576;12.364;2023-07-24T05:09:18;5.57;;;3.88;;
6735;SDS011;3405;50.576;12.364;2023-07-24T05:11:44;4.43;;;3.20;;
6735;SDS011;3405;50.576;12.364;2023-07-24T05:14:10;4.75;;;3.30;;
6735;SDS011;3405;50.576;12.364;2023-07-24T05:16:36;6.70;;;4.10;;
6735;SDS011;3405;50.576;12.364;2023-07-24T05:19:02;6.32;;;4.18;;
6735;SDS011;3405;50.576;12.364;2023-07-24T05:21:28;5.50;;;3.60;;
6735;SDS011;3405;50.576;12.364;2023-07-24T05:23:54;7.03;;;3.88;;
6735;SDS011;3405;50.576;12.364;2023-07-24T05:26:20;5.70;;;4.40;;
6735;SDS011;3405;50.576;12.364;2023-07-24T05:28:47;6.38;;;4.13;;
6735;SDS011;3405;50.576;12.364;2023-07-24T05:31:13;6.40;;;4.07;;
6735;SDS011;3405;50.576;12.364;2023-07-24T05:33:39;4.50;;;3.83;;
6735;SDS011;3405;50.576;12.364;2023-07-24T05:36:05;6.40;;;4.28;;
6735;SDS011;3405;50.576;12.364;2023-07-24T05:38:31;7.22;;;4.07;;
6735;SDS011;3405;50.576;12.364;2023-07-24T05:40:57;6.65;;;4.60;;
6735;SDS011;3405;50.576;12.364;2023-07-24T05:43:23;7.40;;;4.82;;
6735;SDS011;3405;50.576;12.364;2023-07-24T05:45:50;7.13;;;4.45;;
6735;SDS011;3405;50.576;12.364;2023-07-24T05:48:16;7.28;;;4.68;;
6735;SDS011;3405;50.576;12.364;2023-07-24T05:50:42;6.05;;;4.35;;
6735;SDS011;3405;50.576;12.364;2023-07-24T05:53:08;7.10;;;4.38;;
6735;SDS011;3405;50.576;12.364;2023-07-24T05:55:34;6.70;;;4.45;;
6735;SDS011;3405;50.576;12.364;2023-07-24T05:58:00;6.38;;;4.43;;
6735;SDS011;3405;50.576;12.364;2023-07-24T06:00:26;8.30;;;4.30;;
6735;SDS011;3405;50.576;12.364;2023-07-24T06:02:53;7.07;;;4.35;;
6735;SDS011;3405;50.576;12.364;2023-07-24T06:05:19;8.50;;;4.75;;
6735;SDS011;3405;50.576;12.364;2023-07-24T06:07:48;6.45;;;4.50;;
6735;SDS011;3405;50.576;12.364;2023-07-24T06:10:13;7.57;;;4.50;;
6735;SDS011;3405;50.576;12.364;2023-07-24T06:12:39;6.18;;;4.25;;
6735;SDS011;3405;50.576;12.364;2023-07-24T06:15:05;6.28;;;4.57;;
6735;SDS011;3405;50.576;12.364;2023-07-24T06:17:32;6.63;;;4.05;;
6735;SDS011;3405;50.576;12.364;2023-07-24T06:19:58;7.72;;;4.68;;
6735;SDS011;3405;50.576;12.364;2023-07-24T06:22:24;5.50;;;4.40;;
6735;SDS011;3405;50.576;12.364;2023-07-24T06:24:50;8.50;;;4.93;;
6735;SDS011;3405;50.576;12.364;2023-07-24T06:27:16;7.03;;;4.40;;
6735;SDS011;3405;50.576;12.364;2023-07-24T06:29:42;6.75;;;4.43;;
6735;SDS011;3405;50.576;12.364;2023-07-24T06:32:08;6.90;;;5.10;;
6735;SDS011;3405;50.576;12.364;2023-07-24T06:34:34;6.07;;;4.47;;
6735;SDS011;3405;50.576;12.364;2023-07-24T06:37:00;6.90;;;5.03;;
6735;SDS011;3405;50.576;12.364;2023-07-24T06:39:26;7.72;;;4.75;;
6735;SDS011;3405;50.576;12.364;2023-07-24T06:41:53;6.53;;;4.43;;
6735;SDS011;3405;50.576;12.364;2023-07-24T06:44:19;7.53;;;4.30;;
6735;SDS011;3405;50.576;12.364;2023-07-24T06:46:45;7.85;;;5.00;;
6735;SDS011;3405;50.576;12.364;2023-07-24T06:49:11;6.38;;;4.60;;
6735;SDS011;3405;50.576;12.364;2023-07-24T06:51:37;7.82;;;4.63;;
6735;SDS011;3405;50.576;12.364;2023-07-24T06:54:06;8.30;;;4.57;;
6735;SDS011;3405;50.576;12.364;2023-07-24T06:56:32;8.40;;;4.60;;
6735;SDS011;3405;50.576;12.364;2023-07-24T06:58:58;7.55;;;4.90;;
6735;SDS011;3405;50.576;12.364;2023-07-24T07:01:24;8.52;;;4.50;;
6735;SDS011;3405;50.576;12.364;2023-07-24T07:03:49;6.95;;;4.47;;
6735;SDS011;3405;50.576;12.364;2023-07-24T07:06:15;8.85;;;4.95;;
6735;SDS011;3405;50.576;12.364;2023-07-24T07:08:41;7.85;;;5.13;;
6735;SDS011;3405;50.576;12.364;2023-07-24T07:11:07;6.78;;;4.53;;
6735;SDS011;3405;50.576;12.364;2023-07-24T07:13:33;7.78;;;4.70;;
6735;SDS011;3405;50.576;12.364;2023-07-24T07:15:59;7.03;;;4.68;;
6735;SDS011;3405;50.576;12.364;2023-07-24T07:18:25;10.07;;;4.60;;
6735;SDS011;3405;50.576;12.364;2023-07-24T07:20:52;9.20;;;5.53;;
6735;SDS011;3405;50.576;12.364;2023-07-24T07:23:18;8.73;;;5.38;;
6735;SDS011;3405;50.576;12.364;2023-07-24T07:25:44;6.95;;;4.60;;
6735;SDS011;3405;50.576;12.364;2023-07-24T07:28:11;6.80;;;4.88;;
6735;SDS011;3405;50.576;12.364;2023-07-24T07:30:37;9.93;;;4.88;;
6735;SDS011;3405;50.576;12.364;2023-07-24T07:33:03;7.55;;;5.10;;
6735;SDS011;3405;50.576;12.364;2023-07-24T07:35:31;8.40;;;5.63;;
6735;SDS011;3405;50.576;12.364;2023-07-24T07:37:57;6.97;;;4.82;;
6735;SDS011;3405;50.576;12.364;2023-07-24T07:40:23;7.78;;;5.50;;
6735;SDS011;3405;50.576;12.364;2023-07-24T07:42:49;6.35;;;4.70;;
6735;SDS011;3405;50.576;12.364;2023-07-24T07:45:15;6.28;;;4.50;;
6735;SDS011;3405;50.576;12.364;2023-07-24T07:47:41;6.40;;;4.45;;
6735;SDS011;3405;50.576;12.364;2023-07-24T07:50:07;7.38;;;4.47;;
6735;SDS011;3405;50.576;12.364;2023-07-24T07:52:33;6.68;;;4.50;;
6735;SDS011;3405;50.576;12.364;2023-07-24T07:54:59;6.95;;;4.97;;
6735;SDS011;3405;50.576;12.364;2023-07-24T07:57:24;7.85;;;4.22;;
6735;SDS011;3405;50.576;12.364;2023-07-24T07:59:50;7.50;;;4.55;;
6735;SDS011;3405;50.576;12.364;2023-07-24T08:02:16;13.38;;;5.03;;
6735;SDS011;3405;50.576;12.364;2023-07-24T08:04:42;7.40;;;4.38;;
6735;SDS011;3405;50.576;12.364;2023-07-24T08:07:08;7.15;;;4.60;;
6735;SDS011;3405;50.576;12.364;2023-07-24T08:09:34;5.82;;;3.97;;
6735;SDS011;3405;50.576;12.364;2023-07-24T08:12:03;6.45;;;4.20;;
6735;SDS011;3405;50.576;12.364;2023-07-24T08:14:29;6.57;;;4.50;;
6735;SDS011;3405;50.576;12.364;2023-07-24T08:16:55;6.72;;;4.25;;
6735;SDS011;3405;50.576;12.364;2023-07-24T08:19:21;6.53;;;4.22;;
6735;SDS011;3405;50.576;12.364;2023-07-24T08:21:47;6.47;;;4.50;;
6735;SDS011;3405;50.576;12.364;2023-07-24T08:24:13;6.63;;;4.07;;
6735;SDS011;3405;50.576;12.364;2023-07-24T08:26:39;7.28;;;4.35;;
6735;SDS011;3405;50.576;12.364;2023-07-24T08:29:05;5.72;;;4.22;;
6735;SDS011;3405;50.576;12.364;2023-07-24T08:31:31;5.88;;;4.28;;
6735;SDS011;3405;50.576;12.364;2023-07-24T08:33:57;6.50;;;3.97;;
6735;SDS011;3405;50.576;12.364;2023-07-24T08:36:23;5.55;;;3.58;;
6735;SDS011;3405;50.576;12.364;2023-07-24T08:38:49;6.15;;;3.80;;
6735;SDS011;3405;50.576;12.364;2023-07-24T08:41:15;6.45;;;4.05;;
6735;SDS011;3405;50.576;12.364;2023-07-24T08:43:41;6.20;;;3.80;;
6735;SDS011;3405;50.576;12.364;2023-07-24T08:46:08;5.85;;;4.13;;
6735;SDS011;3405;50.576;12.364;2023-07-24T08:48:35;5.88;;;3.85;;
6735;SDS011;3405;50.576;12.364;2023-07-24T08:51:01;6.32;;;4.20;;
6735;SDS011;3405;50.576;12.364;2023-07-24T08:53:32;7.53;;;5.07;;
6735;SDS011;3405;50.576;12.364;2023-07-24T08:56:08;7.43;;;5.65;;
6735;SDS011;3405;50.576;12.364;2023-07-24T08:58:34;7.90;;;4.47;;
6735;SDS011;3405;50.576;12.364;2023-07-24T09:01:01;6.63;;;4.70;;
6735;SDS011;3405;50.576;12.364;2023-07-24T09:03:27;10.40;;;4.80;;
6735;SDS011;3405;50.576;12.364;2023-07-24T09:05:53;7.70;;;4.65;;
6735;SDS011;3405;50.576;12.364;2023-07-24T09:08:29;8.43;;;5.15;;
6735;SDS011;3405;50.576;12.364;2023-07-24T09:10:56;8.13;;;4.75;;
6735;SDS011;3405;50.576;12.364;2023-07-24T09:13:22;8.35;;;5.07;;
6735;SDS011;3405;50.576;12.364;2023-07-24T09:15:48;7.72;;;5.10;;
6735;SDS011;3405;50.576;12.364;2023-07-24T09:18:14;8.52;;;5.03;;
6735;SDS011;3405;50.576;12.364;2023-07-24T09:20:42;8.25;;;5.45;;
6735;SDS011;3405;50.576;12.364;2023-07-24T09:23:08;9.02;;;5.70;;
6735;SDS011;3405;50.576;12.364;2023-07-24T09:25:35;9.98;;;5.22;;
6735;SDS011;3405;50.576;12.364;2023-07-24T09:28:01;9.05;;;5.05;;
6735;SDS011;3405;50.576;12.364;2023-07-24T09:30:27;9.45;;;4.97;;
6735;SDS011;3405;50.576;12.364;2023-07-24T09:32:53;8.65;;;5.07;;
6735;SDS011;3405;50.576;12.364;2023-07-24T09:35:20;9.65;;;5.72;;
6735;SDS011;3405;50.576;12.364;2023-07-24T09:37:50;9.73;;;5.18;;
6735;SDS011;3405;50.576;12.364;2023-07-24T09:40:16;8.77;;;5.50;;
6735;SDS011;3405;50.576;12.364;2023-07-24T09:42:42;9.10;;;5.47;;
6735;SDS011;3405;50.576;12.364;2023-07-24T09:45:08;8.98;;;5.15;;
6735;SDS011;3405;50.576;12.364;2023-07-24T09:47:34;7.78;;;5.25;;
6735;SDS011;3405;50.576;12.364;2023-07-24T09:50:04;7.18;;;4.88;;
6735;SDS011;3405;50.576;12.364;2023-07-24T09:52:30;9.57;;;5.30;;
6735;SDS011;3405;50.576;12.364;2023-07-24T09:54:59;9.18;;;5.35;;
6735;SDS011;3405;50.576;12.364;2023-07-24T09:57:30;9.55;;;5.95;;
6735;SDS011;3405;50.576;12.364;2023-07-24T09:59:56;7.88;;;5.32;;
6735;SDS011;3405;50.576;12.364;2023-07-24T10:02:22;8.45;;;5.55;;
6735;SDS011;3405;50.576;12.364;2023-07-24T10:04:49;7.82;;;5.60;;
6735;SDS011;3405;50.576;12.364;2023-07-24T10:07:15;8.68;;;5.68;;
6735;SDS011;3405;50.576;12.364;2023-07-24T10:09:44;8.15;;;5.35;;
6735;SDS011;3405;50.576;12.364;2023-07-24T10:12:10;9.40;;;6.20;;
6735;SDS011;3405;50.576;12.364;2023-07-24T10:14:36;8.85;;;5.80;;
6735;SDS011;3405;50.576;12.364;2023-07-24T10:17:03;8.82;;;5.50;;
6735;SDS011;3405;50.576;12.364;2023-07-24T10:19:36;10.32;;;5.95;;
6735;SDS011;3405;50.576;12.364;2023-07-24T10:22:02;6.80;;;4.97;;
6735;SDS011;3405;50.576;12.364;2023-07-24T10:24:29;10.40;;;5.93;;
6735;SDS011;3405;50.576;12.364;2023-07-24T10:26:56;8.57;;;5.47;;
6735;SDS011;3405;50.576;12.364;2023-07-24T10:29:25;8.88;;;5.72;;
6735;SDS011;3405;50.576;12.364;2023-07-24T10:31:54;8.52;;;5.35;;
6735;SDS011;3405;50.576;12.364;2023-07-24T10:34:20;7.88;;;5.28;;
6735;SDS011;3405;50.576;12.364;2023-07-24T10:36:46;9.73;;;6.50;;
6735;SDS011;3405;50.576;12.364;2023-07-24T10:39:13;8.68;;;5.80;;
6735;SDS011;3405;50.576;12.364;2023-07-24T10:41:39;10.60;;;6.88;;
6735;SDS011;3405;50.576;12.364;2023-07-24T10:44:05;8.85;;;5.72;;
6735;SDS011;3405;50.576;12.364;2023-07-24T10:46:37;9.52;;;6.20;;
6735;SDS011;3405;50.576;12.364;2023-07-24T10:49:04;9.98;;;5.75;;
6735;SDS011;3405;50.576;12.364;2023-07-24T10:51:30;9.35;;;6.00;;
6735;SDS011;3405;50.576;12.364;2023-07-24T10:54:02;11.20;;;6.10;;
6735;SDS011;3405;50.576;12.364;2023-07-24T10:56:28;14.23;;;6.82;;
6735;SDS011;3405;50.576;12.364;2023-07-24T10:58:54;8.75;;;5.63;;
6735;SDS011;3405;50.576;12.364;2023-07-24T11:01:20;11.27;;;5.50;;
6735;SDS011;3405;50.576;12.364;2023-07-24T11:03:46;13.40;;;6.82;;
6735;SDS011;3405;50.576;12.364;2023-07-24T11:06:14;11.65;;;6.35;;
6735;SDS011;3405;50.576;12.364;2023-07-24T11:08:40;11.20;;;6.18;;
6735;SDS011;3405;50.576;12.364;2023-07-24T11:11:07;11.82;;;6.07;;
6735;SDS011;3405;50.576;12.364;2023-07-24T11:13:33;9.98;;;6.28;;
6735;SDS011;3405;50.576;12.364;2023-07-24T11:16:05;10.75;;;6.25;;
6735;SDS011;3405;50.576;12.364;2023-07-24T11:18:31;10.55;;;5.97;;
6735;SDS011;3405;50.576;12.364;2023-07-24T11:20:57;7.10;;;5.28;;
6735;SDS011;3405;50.576;12.364;2023-07-24T11:23:23;9.77;;;5.63;;
6735;SDS011;3405;50.576;12.364;2023-07-24T11:25:53;6.85;;;5.22;;
6735;SDS011;3405;50.576;12.364;2023-07-24T11:28:20;8.32;;;4.90;;
6735;SDS011;3405;50.576;12.364;2023-07-24T11:30:46;10.82;;;5.25;;
6735;SDS011;3405;50.576;12.364;2023-07-24T11:33:12;9.07;;;5.05;;
6735;SDS011;3405;50.576;12.364;2023-07-24T11:35:39;8.75;;;5.45;;
6735;SDS011;3405;50.576;12.364;2023-07-24T11:38:09;10.23;;;5.28;;
6735;SDS011;3405;50.576;12.364;2023-07-24T11:43:01;10.10;;;5.93;;
6735;SDS011;3405;50.576;12.364;2023-07-24T11:45:27;14.15;;;6.40;;
6735;SDS011;3405;50.576;12.364;2023-07-24T11:47:53;9.57;;;6.07;;
6735;SDS011;3405;50.576;12.364;2023-07-24T11:50:20;7.35;;;5.07;;
6735;SDS011;3405;50.576;12.364;2023-07-24T11:52:48;9.80;;;6.18;;
6735;SDS011;3405;50.576;12.364;2023-07-24T11:55:14;10.75;;;5.93;;
6735;SDS011;3405;50.576;12.364;2023-07-24T11:57:41;9.38;;;5.80;;
6735;SDS011;3405;50.576;12.364;2023-07-24T12:00:17;8.93;;;5.53;;
6735;SDS011;3405;50.576;12.364;2023-07-24T12:02:43;11.82;;;5.43;;
6735;SDS011;3405;50.576;12.364;2023-07-24T12:05:09;8.68;;;4.10;;
6735;SDS011;3405;50.576;12.364;2023-07-24T12:07:35;7.10;;;3.85;;
6735;SDS011;3405;50.576;12.364;2023-07-24T12:10:02;5.45;;;3.65;;
6735;SDS011;3405;50.576;12.364;2023-07-24T12:12:39;9.48;;;3.72;;
6735;SDS011;3405;50.576;12.364;2023-07-24T12:15:05;5.65;;;3.47;;
6735;SDS011;3405;50.576;12.364;2023-07-24T12:17:31;5.72;;;3.30;;
6735;SDS011;3405;50.576;12.364;2023-07-24T12:19:57;5.22;;;3.20;;
6735;SDS011;3405;50.576;12.364;2023-07-24T12:22:23;4.03;;;2.97;;
6735;SDS011;3405;50.576;12.364;2023-07-24T12:24:49;4.18;;;3.28;;
6735;SDS011;3405;50.576;12.364;2023-07-24T12:27:15;4.90;;;3.20;;
6735;SDS011;3405;50.576;12.364;2023-07-24T12:29:41;5.78;;;3.80;;
6735;SDS011;3405;50.576;12.364;2023-07-24T12:32:06;5.25;;;3.22;;
6735;SDS011;3405;50.576;12.364;2023-07-24T12:34:32;4.35;;;3.15;;
6735;SDS011;3405;50.576;12.364;2023-07-24T12:36:58;6.20;;;3.33;;
6735;SDS011;3405;50.576;12.364;2023-07-24T12:39:24;4.55;;;3.08;;
6735;SDS011;3405;50.576;12.364;2023-07-24T12:41:50;3.78;;;2.97;;
6735;SDS011;3405;50.576;12.364;2023-07-24T12:44:16;4.55;;;3.05;;
6735;SDS011;3405;50.576;12.364;2023-07-24T12:46:42;4.93;;;3.00;;
6735;SDS011;3405;50.576;12.364;2023-07-24T12:49:08;4.00;;;2.80;;
6735;SDS011;3405;50.576;12.364;2023-07-24T12:51:34;6.10;;;3.45;;
6735;SDS011;3405;50.576;12.364;2023-07-24T12:54:00;6.47;;;3.10;;
6735;SDS011;3405;50.576;12.364;2023-07-24T12:56:26;4.63;;;3.50;;
6735;SDS011;3405;50.576;12.364;2023-07-24T12:58:52;5.43;;;3.70;;
6735;SDS011;3405;50.576;12.364;2023-07-24T13:01:18;6.88;;;3.97;;
6735;SDS011;3405;50.576;12.364;2023-07-24T13:03:44;7.80;;;4.75;;
6735;SDS011;3405;50.576;12.364;2023-07-24T13:06:10;6.03;;;4.15;;
6735;SDS011;3405;50.576;12.364;2023-07-24T13:08:36;6.68;;;4.38;;
6735;SDS011;3405;50.576;12.364;2023-07-24T13:11:01;9.15;;;4.47;;
6735;SDS011;3405;50.576;12.364;2023-07-24T13:13:28;7.22;;;4.38;;
6735;SDS011;3405;50.576;12.364;2023-07-24T13:15:55;8.43;;;5.43;;
6735;SDS011;3405;50.576;12.364;2023-07-24T13:18:21;6.05;;;4.60;;
6735;SDS011;3405;50.576;12.364;2023-07-24T13:20:47;8.00;;;5.28;;
6735;SDS011;3405;50.576;12.364;2023-07-24T13:23:13;6.97;;;4.80;;
6735;SDS011;3405;50.576;12.364;2023-07-24T13:25:39;7.45;;;5.00;;
6735;SDS011;3405;50.576;12.364;2023-07-24T13:28:05;6.78;;;5.20;;
6735;SDS011;3405;50.576;12.364;2023-07-24T13:30:31;10.30;;;5.15;;
6735;SDS011;3405;50.576;12.364;2023-07-24T13:32:57;7.88;;;5.40;;
6735;SDS011;3405;50.576;12.364;2023-07-24T13:35:23;9.13;;;5.30;;
6735;SDS011;3405;50.576;12.364;2023-07-24T13:37:49;9.80;;;5.47;;
6735;SDS011;3405;50.576;12.364;2023-07-24T13:40:14;10.18;;;6.35;;
6735;SDS011;3405;50.576;12.364;2023-07-24T13:42:40;8.00;;;5.50;;
6735;SDS011;3405;50.576;12.364;2023-07-24T13:45:07;9.80;;;6.07;;
6735;SDS011;3405;50.576;12.364;2023-07-24T13:47:33;9.52;;;5.90;;
6735;SDS011;3405;50.576;12.364;2023-07-24T13:49:59;8.80;;;5.80;;
6735;SDS011;3405;50.576;12.364;2023-07-24T13:52:28;8.68;;;5.80;;
6735;SDS011;3405;50.576;12.364;2023-07-24T13:54:54;7.60;;;5.55;;
6735;SDS011;3405;50.576;12.364;2023-07-24T13:57:20;8.55;;;5.80;;
6735;SDS011;3405;50.576;12.364;2023-07-24T13:59:46;8.88;;;5.80;;
6735;SDS011;3405;50.576;12.364;2023-07-24T14:02:12;8.98;;;6.03;;
6735;SDS011;3405;50.576;12.364;2023-07-24T14:04:38;8.00;;;5.55;;
6735;SDS011;3405;50.576;12.364;2023-07-24T14:07:04;11.93;;;5.88;;
6735;SDS011;3405;50.576;12.364;2023-07-24T14:09:30;9.48;;;5.93;;
6735;SDS011;3405;50.576;12.364;2023-07-24T14:11:57;10.18;;;6.00;;
6735;SDS011;3405;50.576;12.364;2023-07-24T14:14:23;8.38;;;5.70;;
6735;SDS011;3405;50.576;12.364;2023-07-24T14:16:50;8.73;;;5.75;;
6735;SDS011;3405;50.576;12.364;2023-07-24T14:19:16;8.88;;;5.68;;
6735;SDS011;3405;50.576;12.364;2023-07-24T14:21:42;8.40;;;5.88;;
6735;SDS011;3405;50.576;12.364;2023-07-24T14:24:08;10.95;;;6.20;;
6735;SDS011;3405;50.576;12.364;2023-07-24T14:26:34;8.63;;;5.63;;
6735;SDS011;3405;50.576;12.364;2023-07-24T14:29:02;7.63;;;5.50;;
6735;SDS011;3405;50.576;12.364;2023-07-24T14:31:28;9.70;;;5.80;;
6735;SDS011;3405;50.576;12.364;2023-07-24T14:33:54;8.35;;;5.60;;
6735;SDS011;3405;50.576;12.364;2023-07-24T14:36:20;10.75;;;5.43;;
6735;SDS011;3405;50.576;12.364;2023-07-24T14:38:46;10.85;;;5.75;;
6735;SDS011;3405;50.576;12.364;2023-07-24T14:41:12;9.00;;;5.93;;
6735;SDS011;3405;50.576;12.364;2023-07-24T14:43:40;10.57;;;6.35;;
6735;SDS011;3405;50.576;12.364;2023-07-24T14:46:06;13.13;;;6.43;;
6735;SDS011;3405;50.576;12.364;2023-07-24T14:48:32;11.25;;;6.47;;
6735;SDS011;3405;50.576;12.364;2023-07-24T14:50:58;8.35;;;5.78;;
6735;SDS011;3405;50.576;12.364;2023-07-24T14:53:24;11.05;;;6.63;;
6735;SDS011;3405;50.576;12.364;2023-07-24T14:55:50;10.85;;;6.18;;
6735;SDS011;3405;50.576;12.364;2023-07-24T14:58:16;10.07;;;6.20;;
6735;SDS011;3405;50.576;12.364;2023-07-24T15:00:42;9.35;;;5.85;;